Airfield :
LOGIN :

Register | Disclaimer

   EN    FR    IT 

 










Legend :    VFR   Marginal VFR   IFR   Intensive IFR   Very Intensive IFR
Visi :
Ceiling :
>= 8 km
>= 3000ft
5 to 8 km
1000 to 3000 ft
1500m to 5 km
500 to 1000 ft
800 to 1500m
200 to 500 ft
< 800m
< 200 ft
Symbols :   Thunderstorms  Fog  Heavy snow  Heavy precipitations  Wind > 20 kt
SIGMETs :     Misc.  Thunderstorms  Icing  Turbulence  Mountain Waves  Volcanic Ashes







- Airport Elevation : 267 ft


EGDR - Culdrose Navy

CURRENT METAR :
  • 231350Z 26006KT 8000 BR FEW002 SCT006 BKN010 15/14 Q1024 YLO1 TEMPO SCT002 AMB

EXPIRED METARs :
  • 231250Z 25006KT 1400 BR FEW000 SCT001 OVC002 14/14 Q1024 REDZ RED NOSIG
  • 231150Z 25005KT 0800 -DZ SCT000 OVC001 14/14 Q1024 RED NOSIG

TAF TAF EGDR
Valid from the 23 at 15:00 until the 24 at 00:00 UTC


231357Z 2315/2324 27007KT 5000 -DZ BR FEW002 BKN006
TEMPO 2315/2324 3000 BR SCT004
PROB30
TEMPO 2319/2324 0800 -DZ FG SCT001
No reported NOTAMs for that airfield.



MET'MAP, your aeronautical weather chart ! - Copyright ORBIFLY December 2007 - Disclaimer

ORBIFLY MET'MAP TEAM :

Programming & Development : Alexandra Zaïnal
Concept & Development : Baudouin d'Aumeries
Co-Development & Prog : Marc-Olivier Méhu
Technical & hardware support : Manuel Goepfert

Contact : metmap@orbifly.com




SOURCES & CREDITS :

   NOAA